Time,TemperatureF,DewpointF,PressureIn,WindDirection,WindDirectionDegrees,WindSpeedMPH,WindSpeedGustMPH,Humidity,HourlyPrecipIn,Conditions,Clouds,dailyrainin,SoftwareType,DateUTC
2013-08-23 00:10:00,70.0,51.0,-100.00,NW,315,5.0,9.0,50,-99.99,,,-99.99,,2013-08-23 07:10:00,
2013-08-23 02:10:00,70.0,51.0,-100.00,WNW,295,6.0,10.0,50,-99.99,,,-99.99,,2013-08-23 09:10:00,
2013-08-23 02:12:00,71.0,51.0,-100.00,WNW,300,9.0,13.0,49,-99.99,,,-99.99,,2013-08-23 09:12:00,
2013-08-23 04:11:00,69.0,51.0,-100.00,North,360,2.0,8.0,52,-99.99,,,-99.99,,2013-08-23 11:11:00,
2013-08-23 05:10:00,65.0,56.0,-100.00,NNW,335,1.0,3.0,72,-99.99,,,-99.99,,2013-08-23 12:10:00,
2013-08-23 07:10:00,64.0,58.0,-100.00,North,360,1.0,3.0,80,-99.99,,,-99.99,,2013-08-23 14:10:00,
2013-08-23 07:12:00,64.0,58.0,-100.00,NW,310,5.0,10.0,80,-99.99,,,-99.99,,2013-08-23 14:12:00,
2013-08-23 09:13:00,66.0,58.0,-100.00,WNW,290,6.0,12.0,75,-99.99,,,-99.99,,2013-08-23 16:13:00,
2013-08-23 09:20:00,67.0,59.0,-100.00,WNW,295,3.0,6.0,75,-99.99,,,-99.99,,2013-08-23 16:20:00,
2013-08-23 10:10:00,70.0,60.0,-100.00,NE,45,1.0,2.0,70,-99.99,,,-99.99,,2013-08-23 17:10:00,
2013-08-23 10:13:00,67.0,59.0,-100.00,WNW,295,3.0,6.0,75,-99.99,,,-99.99,,2013-08-23 17:13:00,
2013-08-23 12:11:00,75.0,59.0,-100.00,NNE,25,2.0,3.0,57,-99.99,,,-99.99,,2013-08-23 19:11:00,
2013-08-23 13:10:00,85.0,59.0,-100.00,North,360,1.0,6.0,41,-99.99,,,-99.99,,2013-08-23 20:10:00,
2013-08-23 15:10:00,84.0,56.0,-100.00,NW,305,2.0,3.0,38,-99.99,,,-99.99,,2013-08-23 22:10:00,
2013-08-23 15:13:00,80.0,56.0,-100.00,NNW,335,2.0,6.0,43,-99.99,,,-99.99,,2013-08-23 22:13:00,
2013-08-23 17:11:00,84.0,56.0,-100.00,NW,310,2.0,7.0,38,-99.99,,,-99.99,,2013-08-24 00:11:00,
2013-08-23 18:10:00,79.0,54.0,-100.00,NNE,20,2.0,7.0,42,-99.99,,,-99.99,,2013-08-24 01:10:00,
2013-08-23 20:10:00,74.0,51.0,-100.00,WNW,300,5.0,9.0,44,-99.99,,,-99.99,,2013-08-24 03:10:00,
2013-08-23 20:12:00,76.0,52.0,-100.00,NW,310,6.0,9.0,43,-99.99,,,-99.99,,2013-08-24 03:12:00,
2013-08-23 22:13:00,72.0,50.0,-100.00,WNW,285,6.0,9.0,45,-99.99,,,-99.99,,2013-08-24 05:13:00,
2013-08-23 22:20:00,70.0,49.0,-100.00,West,280,7.0,12.0,47,-99.99,,,-99.99,,2013-08-24 05:20:00,
2013-08-23 23:10:00,68.0,49.0,-100.00,NW,320,5.0,9.0,50,-99.99,,,-99.99,,2013-08-24 06:10:00,
2013-08-23 23:12:00,70.0,49.0,-100.00,West,280,7.0,12.0,47,-99.99,,,-99.99,,2013-08-24 06:12:00,